Repto San Antonio, Puerto Rico
Current Conditions -  °F | °C
As of 1:50 AM on Monday 22 Dec 2014 (Local Time) from TJBQ Reporting Station
Scattered Clouds Scattered Clouds  
Wind Chill: 70°   Ceiling: Unl
Heat Index: 70°   Visibility: 10mi
Dew Point: 64°   Wind: 6mph
Humidity: 83%   Direction: 110°ESE
Pressure: 30.05"   Gusts: NA
Location:  18.4951°N, 67.0273°W
Report Text: TJBQ 220550Z 11005KT 10SM SCT033 21/18 A3005 RMK RWY 8 ATIS O
Loading
Personal Weather Stations






























Interactive Weather Map New forecast layout! Learn more

10-Day Weather Forecast

Advertisements
Track Severe Weather on mobile